Time,TemperatureF,DewpointF,PressureIn,WindDirection,WindDirectionDegrees,WindSpeedMPH,WindSpeedGustMPH,Humidity,HourlyPrecipIn,Conditions,Clouds,dailyrainin,SoftwareType,DateUTC
2013-01-19 00:57:00,42.4,29.5,28.76,WNW,287,8.7,16.3,60,0.00,,---,0.00,VWS V14.01,2013-01-19 05:57:00,
2013-01-19 00:58:00,42.4,29.5,28.76,WSW,253,16.3,16.3,60,0.00,,---,0.00,VWS V14.01,2013-01-19 05:58:00,
2013-01-19 00:59:00,42.3,29.4,28.76,SW,228,8.7,16.3,60,0.00,,---,0.00,VWS V14.01,2013-01-19 05:59:00,
2013-01-19 01:00:00,36.3,14.3,29.03,SW,228,8.3,8.7,40,0.00,,---,0.00,VWS V14.01,2013-01-19 06:00:00,
2013-01-19 01:01:00,42.3,29.4,28.76,WNW,283,8.7,14.8,60,0.00,,---,0.00,VWS V14.01,2013-01-19 06:01:00,
2013-01-19 01:02:00,42.3,29.4,28.76,WSW,249,6.9,12.1,60,0.00,,---,0.00,VWS V14.01,2013-01-19 06:02:00,
2013-01-19 01:03:00,42.3,29.4,28.76,West,265,11.2,14.8,60,0.00,,---,0.00,VWS V14.01,2013-01-19 06:03:00,
2013-01-19 01:04:00,42.1,29.2,28.76,West,281,5.8,16.8,60,0.00,,---,0.00,VWS V14.01,2013-01-19 06:04:00,
2013-01-19 01:05:00,36.3,14.3,29.03,SSW,201,6.7,10.5,40,0.00,,---,0.00,VWS V14.01,2013-01-19 06:05:00,
2013-01-19 01:06:00,42.1,29.2,28.76,WNW,293,8.7,11.6,60,0.00,,---,0.00,VWS V14.01,2013-01-19 06:06:00,
2013-01-19 01:07:00,42.1,29.2,28.76,WNW,287,12.1,15.4,60,0.00,,---,0.00,VWS V14.01,2013-01-19 06:07:00,
2013-01-19 01:08:00,42.1,29.6,28.76,WSW,249,9.2,12.1,61,0.00,,---,0.00,VWS V14.01,2013-01-19 06:08:00,
2013-01-19 01:09:00,42.1,29.2,28.76,West,273,15.9,15.9,60,0.00,,---,0.00,VWS V14.01,2013-01-19 06:09:00,
2013-01-19 01:10:00,36.3,14.3,29.03,SW,234,6.9,10.1,40,0.00,,---,0.00,VWS V14.01,2013-01-19 06:10:00,
2013-01-19 01:11:00,42.1,29.2,28.76,West,262,13.0,15.9,60,0.00,,---,0.00,VWS V14.01,2013-01-19 06:11:00,
2013-01-19 01:12:00,42.1,29.2,28.76,WNW,283,15.4,15.4,60,0.00,,---,0.00,VWS V14.01,2013-01-19 06:12:00,
2013-01-19 01:13:00,42.1,29.2,28.76,West,265,15.2,20.6,60,0.00,,---,0.00,VWS V14.01,2013-01-19 06:13:00,
2013-01-19 01:14:00,42.1,28.8,28.76,SSW,192,15.4,19.0,59,0.00,,---,0.00,VWS V14.01,2013-01-19 06:14:00,
2013-01-19 01:15:00,42.3,29.0,28.76,WNW,289,12.1,21.5,59,0.00,,---,0.00,VWS V14.01,2013-01-19 06:15:00,
2013-01-19 01:16:00,36.7,14.1,29.03,SW,236,7.8,12.1,39,0.00,,---,0.00,VWS V14.01,2013-01-19 06:16:00,
2013-01-19 01:17:00,42.3,28.5,28.76,West,269,9.6,13.4,58,0.00,,---,0.00,VWS V14.01,2013-01-19 06:17:00,
2013-01-19 01:18:00,42.3,28.5,28.76,WSW,250,13.4,14.8,58,0.00,,---,0.00,VWS V14.01,2013-01-19 06:18:00,
2013-01-19 01:19:00,42.3,28.5,28.76,West,271,17.2,18.6,58,0.00,,---,0.00,VWS V14.01,2013-01-19 06:19:00,
2013-01-19 01:20:00,42.3,28.5,28.76,SSW,205,11.6,18.1,58,0.00,,---,0.00,VWS V14.01,2013-01-19 06:20:00,
2013-01-19 01:21:00,42.3,28.5,28.79,West,259,11.6,14.3,58,0.00,,---,0.00,VWS V14.01,2013-01-19 06:21:00,
2013-01-19 01:22:00,42.1,28.4,28.79,WSW,247,13.9,21.5,58,0.00,,---,0.00,VWS V14.01,2013-01-19 06:22:00,
2013-01-19 01:23:00,42.3,28.1,28.79,WNW,289,15.2,22.8,57,0.00,,---,0.00,VWS V14.01,2013-01-19 06:23:00,
2013-01-19 01:24:00,42.3,28.1,28.79,NW,306,12.1,15.2,57,0.00,,---,0.00,VWS V14.01,2013-01-19 06:24:00,
2013-01-19 01:25:00,42.3,28.1,28.79,West,278,15.4,15.9,57,0.00,,---,0.00,VWS V14.01,2013-01-19 06:25:00,
2013-01-19 01:26:00,42.3,27.7,28.79,West,276,14.3,16.8,56,0.00,,---,0.00,VWS V14.01,2013-01-19 06:26:00,
2013-01-19 01:27:00,42.3,27.7,28.79,NW,310,11.2,16.3,56,0.00,,---,0.00,VWS V14.01,2013-01-19 06:27:00,
2013-01-19 01:28:00,42.3,27.7,28.79,WSW,239,13.4,21.0,56,0.00,,---,0.00,VWS V14.01,2013-01-19 06:28:00,
2013-01-19 01:29:00,42.3,27.7,28.79,West,272,15.2,15.2,56,0.00,,---,0.00,VWS V14.01,2013-01-19 06:29:00,
2013-01-19 01:30:00,36.5,13.9,29.03,WSW,246,6.7,8.7,39,0.00,,---,0.00,VWS V14.01,2013-01-19 06:30:00,
2013-01-19 01:31:00,42.3,27.3,28.79,West,263,15.9,15.9,55,0.00,,---,0.00,VWS V14.01,2013-01-19 06:31:00,
2013-01-19 01:32:00,42.3,27.3,28.79,WSW,240,15.9,18.1,55,0.00,,---,0.00,VWS V14.01,2013-01-19 06:32:00,
2013-01-19 01:33:00,42.1,27.1,28.79,West,266,20.1,20.1,55,0.00,,---,0.00,VWS V14.01,2013-01-19 06:33:00,
2013-01-19 01:34:00,42.1,27.1,28.79,WSW,256,11.0,20.1,55,0.00,,---,0.00,VWS V14.01,2013-01-19 06:34:00,
2013-01-19 01:35:00,42.1,26.6,28.79,WNW,282,12.1,16.3,54,0.00,,---,0.00,VWS V14.01,2013-01-19 06:35:00,
2013-01-19 01:36:00,42.1,26.6,28.79,West,270,11.6,17.2,54,0.00,,---,0.00,VWS V14.01,2013-01-19 06:36:00,
2013-01-19 01:37:00,36.5,14.5,29.03,WSW,251,6.9,10.1,40,0.00,,---,0.00,VWS V14.01,2013-01-19 06:37:00,
2013-01-19 01:38:00,41.9,26.5,28.79,WSW,245,20.1,21.0,54,0.00,,---,0.00,VWS V14.01,2013-01-19 06:38:00,
2013-01-19 01:39:00,41.9,26.9,28.79,West,274,11.6,20.1,55,0.00,,---,0.00,VWS V14.01,2013-01-19 06:39:00,
2013-01-19 01:40:00,41.7,26.8,28.79,WSW,252,7.8,16.8,55,0.00,,---,0.00,VWS V14.01,2013-01-19 06:40:00,
2013-01-19 01:41:00,41.7,26.8,28.79,NW,306,15.2,15.9,55,0.00,,---,0.00,VWS V14.01,2013-01-19 06:41:00,
2013-01-19 01:42:00,41.7,26.3,28.79,WNW,290,13.0,20.6,54,0.00,,---,0.00,VWS V14.01,2013-01-19 06:42:00,
2013-01-19 01:44:00,41.7,26.3,28.79,NW,308,16.3,16.3,54,0.00,,---,0.00,VWS V14.01,2013-01-19 06:44:00,
2013-01-19 01:45:00,41.7,26.3,28.79,WSW,258,10.5,16.3,54,0.00,,---,0.00,VWS V14.01,2013-01-19 06:45:00,
2013-01-19 01:46:00,41.5,26.1,28.79,WNW,282,19.5,20.1,54,0.00,,---,0.00,VWS V14.01,2013-01-19 06:46:00,
2013-01-19 01:47:00,36.7,14.1,29.03,WNW,290,13.9,13.9,39,0.00,,---,0.00,VWS V14.01,2013-01-19 06:47:00,
2013-01-19 01:48:00,41.5,25.7,28.79,WNW,301,15.9,20.6,53,0.00,,---,0.00,VWS V14.01,2013-01-19 06:48:00,
2013-01-19 01:49:00,41.5,25.2,28.79,WNW,289,19.5,19.5,52,0.00,,---,0.00,VWS V14.01,2013-01-19 06:49:00,
2013-01-19 01:50:00,41.7,24.9,28.79,West,260,16.3,24.8,51,0.00,,---,0.00,VWS V14.01,2013-01-19 06:50:00,
2013-01-19 01:52:00,41.5,24.3,28.79,West,272,15.4,15.4,50,0.00,,---,0.00,VWS V14.01,2013-01-19 06:52:00,
2013-01-19 01:53:00,36.7,14.1,29.03,South,185,6.9,6.9,39,0.00,,---,0.00,VWS V14.01,2013-01-19 06:53:00,
2013-01-19 01:57:00,41.5,24.3,28.79,WNW,285,15.2,24.8,50,0.00,,---,0.00,VWS V14.01,2013-01-19 06:57:00,
2013-01-19 01:58:00,36.5,14.5,29.03,WNW,299,7.8,13.0,40,0.00,,---,0.00,VWS V14.01,2013-01-19 06:58:00,
2013-01-19 01:59:00,41.4,24.1,28.79,WSW,256,15.2,20.1,50,0.00,,---,0.00,VWS V14.01,2013-01-19 06:59:00,
2013-01-19 02:00:00,41.5,23.8,28.79,WNW,284,9.2,21.5,49,0.00,,---,0.00,VWS V14.01,2013-01-19 07:00:00,
2013-01-19 02:01:00,41.5,23.8,28.79,NNW,347,11.6,13.4,49,0.00,,---,0.00,VWS V14.01,2013-01-19 07:01:00,
2013-01-19 02:02:00,41.4,23.6,28.79,WNW,295,24.2,24.2,49,0.00,,---,0.00,VWS V14.01,2013-01-19 07:02:00,
2013-01-19 02:03:00,41.5,23.8,28.79,NW,316,10.5,25.3,49,0.00,,---,0.00,VWS V14.01,2013-01-19 07:03:00,
2013-01-19 02:05:00,41.2,24.0,28.79,WNW,298,7.8,14.3,50,0.00,,---,0.00,VWS V14.01,2013-01-19 07:05:00,
2013-01-19 02:07:00,36.7,14.1,29.03,SW,219,9.6,10.1,39,0.00,,---,0.00,VWS V14.01,2013-01-19 07:07:00,
2013-01-19 02:08:00,41.0,23.8,28.79,West,272,13.0,21.5,50,0.00,,---,0.00,VWS V14.01,2013-01-19 07:08:00,
2013-01-19 02:09:00,41.0,23.8,28.79,NW,311,15.4,15.4,50,0.00,,---,0.00,VWS V14.01,2013-01-19 07:09:00,
2013-01-19 02:10:00,41.0,23.8,28.79,WNW,299,11.6,21.5,50,0.00,,---,0.00,VWS V14.01,2013-01-19 07:10:00,
2013-01-19 02:11:00,40.8,23.6,28.79,WSW,245,9.2,14.8,50,0.00,,---,0.00,VWS V14.01,2013-01-19 07:11:00,
2013-01-19 02:12:00,40.8,23.6,28.79,WNW,291,10.5,14.8,50,0.00,,---,0.00,VWS V14.01,2013-01-19 07:12:00,
2013-01-19 02:13:00,36.5,14.5,29.03,WSW,258,7.8,11.2,40,0.00,,---,0.00,VWS V14.01,2013-01-19 07:13:00,
2013-01-19 02:18:00,36.7,14.1,29.03,SW,221,7.4,13.4,39,0.00,,---,0.00,VWS V14.01,2013-01-19 07:18:00,
2013-01-19 02:19:00,40.3,22.7,28.79,WNW,299,12.5,23.7,49,0.00,,---,0.00,VWS V14.01,2013-01-19 07:19:00,
2013-01-19 02:20:00,40.5,22.3,28.79,NW,314,13.0,23.7,48,0.00,,---,0.00,VWS V14.01,2013-01-19 07:20:00,
2013-01-19 02:21:00,40.3,22.2,28.82,WNW,289,7.8,13.0,48,0.00,,---,0.00,VWS V14.01,2013-01-19 07:21:00,
2013-01-19 02:22:00,40.3,22.2,28.82,West,281,6.3,26.2,48,0.00,,---,0.00,VWS V14.01,2013-01-19 07:22:00,
2013-01-19 02:23:00,36.7,14.1,29.03,SW,219,8.7,12.1,39,0.00,,---,0.00,VWS V14.01,2013-01-19 07:23:00,
2013-01-19 02:24:00,40.3,22.2,28.82,WNW,296,17.7,22.8,48,0.00,,---,0.00,VWS V14.01,2013-01-19 07:24:00,
2013-01-19 02:25:00,40.3,21.7,28.82,NW,315,12.1,19.9,47,0.00,,---,0.00,VWS V14.01,2013-01-19 07:25:00,
2013-01-19 02:26:00,40.3,21.7,28.82,WNW,299,10.1,14.8,47,0.00,,---,0.00,VWS V14.01,2013-01-19 07:26:00,
2013-01-19 02:28:00,36.7,14.1,29.03,SW,220,8.3,11.0,39,0.00,,---,0.00,VWS V14.01,2013-01-19 07:28:00,
2013-01-19 02:33:00,36.5,13.9,29.03,SW,225,10.1,10.1,39,0.00,,---,0.00,VWS V14.01,2013-01-19 07:33:00,
2013-01-19 02:39:00,36.5,14.5,29.03,NW,306,9.6,10.1,40,0.00,,---,0.00,VWS V14.01,2013-01-19 07:39:00,
2013-01-19 02:40:00,39.7,20.7,28.82,South,187,11.0,20.6,46,0.00,,---,0.00,VWS V14.01,2013-01-19 07:40:00,
2013-01-19 02:43:00,39.4,20.8,28.82,WSW,243,10.1,17.2,47,0.00,,---,0.00,VWS V14.01,2013-01-19 07:43:00,
2013-01-19 02:44:00,36.3,14.3,29.03,SSW,210,7.4,9.6,40,0.00,,---,0.00,VWS V14.01,2013-01-19 07:44:00,
2013-01-19 02:47:00,39.4,20.3,28.82,NW,321,11.6,20.1,46,0.00,,---,0.00,VWS V14.01,2013-01-19 07:47:00,
2013-01-19 02:48:00,39.2,20.2,28.82,West,267,19.9,19.9,46,0.00,,---,0.00,VWS V14.01,2013-01-19 07:48:00,
2013-01-19 02:49:00,36.3,14.3,29.03,WSW,243,8.3,8.3,40,0.00,,---,0.00,VWS V14.01,2013-01-19 07:49:00,
2013-01-19 02:52:00,38.8,20.4,28.82,WNW,301,10.5,12.1,47,0.00,,---,0.00,VWS V14.01,2013-01-19 07:52:00,
2013-01-19 02:54:00,36.1,14.2,29.03,WSW,237,5.8,10.5,40,0.00,,---,0.00,VWS V14.01,2013-01-19 07:54:00,
2013-01-19 02:56:00,38.5,21.0,28.82,West,281,16.3,16.3,49,0.00,,---,0.00,VWS V14.01,2013-01-19 07:56:00,
2013-01-19 02:59:00,36.1,14.2,29.03,WSW,238,6.3,9.2,40,0.00,,---,0.00,VWS V14.01,2013-01-19 07:59:00,
2013-01-19 03:00:00,38.3,20.8,28.82,WNW,286,18.1,18.1,49,0.00,,---,0.00,VWS V14.01,2013-01-19 08:00:00,
2013-01-19 03:04:00,36.0,14.6,29.03,WSW,249,6.7,10.1,41,0.00,,---,0.00,VWS V14.01,2013-01-19 08:04:00,
2013-01-19 03:05:00,38.3,21.8,28.82,West,281,7.8,10.5,51,0.00,,---,0.00,VWS V14.01,2013-01-19 08:05:00,
2013-01-19 03:09:00,35.8,14.4,29.03,SW,226,10.5,11.6,41,0.00,,---,0.00,VWS V14.01,2013-01-19 08:09:00,
2013-01-19 03:12:00,38.1,22.1,28.82,NW,313,12.5,19.5,52,0.00,,---,0.00,VWS V14.01,2013-01-19 08:12:00,
2013-01-19 03:13:00,38.1,22.1,28.82,NW,304,20.1,24.8,52,0.00,,---,0.00,VWS V14.01,2013-01-19 08:13:00,
2013-01-19 03:14:00,35.8,14.4,29.03,SW,219,5.8,9.2,41,0.00,,---,0.00,VWS V14.01,2013-01-19 08:14:00,
2013-01-19 03:16:00,38.1,20.7,28.82,WNW,298,5.4,21.5,49,0.00,,---,0.00,VWS V14.01,2013-01-19 08:16:00,
2013-01-19 03:19:00,35.8,14.4,29.03,SW,221,4.9,7.4,41,0.00,,---,0.00,VWS V14.01,2013-01-19 08:19:00,
2013-01-19 03:22:00,38.1,20.2,28.85,West,277,13.9,25.3,48,0.00,,---,0.00,VWS V14.01,2013-01-19 08:22:00,
2013-01-19 03:24:00,35.8,14.4,29.03,SW,231,7.4,10.1,41,0.00,,---,0.00,VWS V14.01,2013-01-19 08:24:00,
2013-01-19 03:29:00,36.0,14.6,29.03,SW,224,8.3,9.2,41,0.00,,---,0.00,VWS V14.01,2013-01-19 08:29:00,
2013-01-19 03:34:00,35.8,14.4,29.03,SW,233,9.2,9.2,41,0.00,,---,0.00,VWS V14.01,2013-01-19 08:34:00,
2013-01-19 03:39:00,35.8,14.4,29.03,SW,236,8.7,11.6,41,0.00,,---,0.00,VWS V14.01,2013-01-19 08:39:00,
2013-01-19 03:41:00,36.9,17.5,28.85,NW,320,14.8,17.2,45,0.00,,---,0.00,VWS V14.01,2013-01-19 08:41:00,
2013-01-19 03:42:00,36.9,17.5,28.85,NW,307,15.4,17.7,45,0.00,,---,0.00,VWS V14.01,2013-01-19 08:42:00,
2013-01-19 03:43:00,36.9,17.5,28.85,NW,308,18.6,24.4,45,0.00,,---,0.00,VWS V14.01,2013-01-19 08:43:00,
2013-01-19 03:44:00,36.0,14.0,29.03,SW,230,8.3,9.6,40,0.00,,---,0.00,VWS V14.01,2013-01-19 08:44:00,
2013-01-19 03:46:00,36.7,16.3,28.85,West,277,12.1,19.5,43,0.00,,---,0.00,VWS V14.01,2013-01-19 08:46:00,
2013-01-19 03:47:00,36.5,16.1,28.85,WSW,255,12.1,22.8,43,0.00,,---,0.00,VWS V14.01,2013-01-19 08:47:00,
2013-01-19 03:49:00,36.1,14.2,29.03,SSW,204,7.8,10.5,40,0.00,,---,0.00,VWS V14.01,2013-01-19 08:49:00,
2013-01-19 03:50:00,36.1,14.2,28.85,NNW,329,16.3,21.9,40,0.00,,---,0.00,VWS V14.01,2013-01-19 08:50:00,
2013-01-19 03:53:00,36.0,13.4,28.85,WNW,282,13.9,20.1,39,0.00,,---,0.00,VWS V14.01,2013-01-19 08:53:00,
2013-01-19 03:54:00,36.1,14.2,29.03,SSW,211,7.4,11.0,40,0.00,,---,0.00,VWS V14.01,2013-01-19 08:54:00,
2013-01-19 03:56:00,35.8,13.8,28.85,WNW,298,10.5,17.7,40,0.00,,---,0.00,VWS V14.01,2013-01-19 08:56:00,
2013-01-19 03:57:00,35.6,13.7,28.85,NNW,331,12.5,15.2,40,0.00,,---,0.00,VWS V14.01,2013-01-19 08:57:00,
2013-01-19 03:58:00,35.6,13.7,28.85,SW,223,11.6,17.2,40,0.00,,---,0.00,VWS V14.01,2013-01-19 08:58:00,
2013-01-19 03:59:00,36.1,14.2,29.03,SW,217,4.9,8.3,40,0.00,,---,0.00,VWS V14.01,2013-01-19 08:59:00,
2013-01-19 04:01:00,35.1,12.6,28.85,NW,316,14.3,19.9,39,0.00,,---,0.00,VWS V14.01,2013-01-19 09:01:00,
2013-01-19 04:03:00,34.9,10.6,28.85,West,268,9.2,14.3,36,0.00,,---,0.00,VWS V14.01,2013-01-19 09:03:00,
2013-01-19 04:04:00,36.1,13.6,29.03,SW,224,6.9,11.0,39,0.00,,---,0.00,VWS V14.01,2013-01-19 09:04:00,
2013-01-19 04:05:00,34.5,8.4,28.85,West,272,14.3,21.9,33,0.00,,---,0.00,VWS V14.01,2013-01-19 09:05:00,
2013-01-19 04:08:00,34.3,6.9,28.88,NW,306,7.8,16.3,31,0.00,,---,0.00,VWS V14.01,2013-01-19 09:08:00,
2013-01-19 04:09:00,36.3,13.8,29.03,SW,222,6.7,9.6,39,0.00,,---,0.00,VWS V14.01,2013-01-19 09:09:00,
2013-01-19 04:11:00,34.0,5.8,28.88,NW,312,10.5,19.9,30,0.00,,---,0.00,VWS V14.01,2013-01-19 09:11:00,
2013-01-19 04:12:00,34.0,5.8,28.88,WNW,291,9.2,16.8,30,0.00,,---,0.00,VWS V14.01,2013-01-19 09:12:00,
2013-01-19 04:14:00,36.1,14.2,29.00,SW,226,4.9,10.5,40,0.00,,---,0.00,VWS V14.01,2013-01-19 09:14:00,
2013-01-19 04:15:00,33.8,5.7,28.88,NW,322,14.3,15.4,30,0.00,,---,0.00,VWS V14.01,2013-01-19 09:15:00,
2013-01-19 04:16:00,33.6,5.5,28.88,NW,309,15.9,18.6,30,0.00,,---,0.00,VWS V14.01,2013-01-19 09:16:00,
2013-01-19 04:17:00,33.6,3.2,28.88,WNW,286,13.9,19.0,27,0.00,,---,0.00,VWS V14.01,2013-01-19 09:17:00,
2013-01-19 04:19:00,36.0,14.0,29.00,SW,214,6.9,12.1,40,0.00,,---,0.00,VWS V14.01,2013-01-19 09:19:00,
2013-01-19 04:23:00,32.7,3.2,28.88,NNW,332,11.0,21.9,28,0.00,,---,0.00,VWS V14.01,2013-01-19 09:23:00,
2013-01-19 04:24:00,36.0,14.0,29.00,SW,229,9.6,11.0,40,0.00,,---,0.00,VWS V14.01,2013-01-19 09:24:00,
2013-01-19 04:25:00,32.2,4.2,28.88,NNW,339,12.1,15.4,30,0.00,,---,0.00,VWS V14.01,2013-01-19 09:25:00,
2013-01-19 04:28:00,32.0,4.1,28.88,North,351,12.1,20.6,30,0.00,,---,0.00,VWS V14.01,2013-01-19 09:28:00,
2013-01-19 04:29:00,36.1,14.2,29.00,SW,227,6.3,8.3,40,0.00,,---,0.00,VWS V14.01,2013-01-19 09:29:00,
2013-01-19 04:33:00,31.3,4.2,28.88,NNW,344,15.9,23.7,31,0.00,,---,0.00,VWS V14.01,2013-01-19 09:33:00,
2013-01-19 04:34:00,36.0,14.0,29.00,SW,232,8.3,9.6,40,0.00,,---,0.00,VWS V14.01,2013-01-19 09:34:00,
2013-01-19 04:36:00,31.1,4.0,28.91,NNW,330,14.3,20.6,31,0.00,,---,0.00,VWS V14.01,2013-01-19 09:36:00,
2013-01-19 04:37:00,31.1,4.7,28.91,NNW,329,12.5,21.9,32,0.00,,---,0.00,VWS V14.01,2013-01-19 09:37:00,
2013-01-19 04:39:00,36.1,14.2,29.00,WSW,258,8.7,8.7,40,0.00,,---,0.00,VWS V14.01,2013-01-19 09:39:00,
2013-01-19 04:40:00,30.9,4.5,28.91,West,280,14.3,20.1,32,0.00,,---,0.00,VWS V14.01,2013-01-19 09:40:00,
2013-01-19 04:42:00,30.7,4.4,28.91,WNW,297,15.2,15.2,32,0.00,,---,0.00,VWS V14.01,2013-01-19 09:42:00,
2013-01-19 04:43:00,30.7,5.1,28.91,WNW,299,7.8,16.3,33,0.00,,---,0.00,VWS V14.01,2013-01-19 09:43:00,
2013-01-19 04:44:00,36.0,14.0,29.00,SW,226,7.4,10.5,40,0.00,,---,0.00,VWS V14.01,2013-01-19 09:44:00,
2013-01-19 04:45:00,30.6,5.5,28.91,WNW,301,22.4,22.8,34,0.00,,---,0.00,VWS V14.01,2013-01-19 09:45:00,
2013-01-19 04:46:00,30.4,5.4,28.91,NW,322,12.1,22.4,34,0.00,,---,0.00,VWS V14.01,2013-01-19 09:46:00,
2013-01-19 04:48:00,30.2,6.5,28.91,NW,322,8.7,15.9,36,0.00,,---,0.00,VWS V14.01,2013-01-19 09:48:00,
2013-01-19 04:49:00,35.8,13.8,29.00,WSW,240,10.1,10.1,40,0.00,,---,0.00,VWS V14.01,2013-01-19 09:49:00,
2013-01-19 04:50:00,30.0,6.3,28.91,WNW,292,13.4,20.1,36,0.00,,---,0.00,VWS V14.01,2013-01-19 09:50:00,
2013-01-19 04:52:00,29.8,6.2,28.91,NNW,337,11.0,15.9,36,0.00,,---,0.00,VWS V14.01,2013-01-19 09:52:00,
2013-01-19 04:54:00,35.8,13.8,29.00,SW,222,8.3,9.6,40,0.00,,---,0.00,VWS V14.01,2013-01-19 09:54:00,
2013-01-19 04:56:00,29.8,5.5,28.91,NNW,327,12.1,23.3,35,0.00,,---,0.00,VWS V14.01,2013-01-19 09:56:00,
2013-01-19 04:59:00,36.0,14.0,29.00,SW,234,4.5,11.2,40,0.00,,---,0.00,VWS V14.01,2013-01-19 09:59:00,
2013-01-19 05:00:00,29.8,5.5,28.91,NW,314,11.2,20.6,35,0.00,,---,0.00,VWS V14.01,2013-01-19 10:00:00,
2013-01-19 05:02:00,29.7,5.4,28.91,WNW,297,15.2,15.9,35,0.00,,---,0.00,VWS V14.01,2013-01-19 10:02:00,
2013-01-19 05:04:00,35.8,13.8,29.00,WSW,243,9.2,9.2,40,0.00,,---,0.00,VWS V14.01,2013-01-19 10:04:00,
2013-01-19 05:05:00,29.5,5.2,28.91,NW,317,11.0,18.6,35,0.00,,---,0.00,VWS V14.01,2013-01-19 10:05:00,
2013-01-19 05:06:00,29.5,5.2,28.91,WNW,300,11.6,19.9,35,0.00,,---,0.00,VWS V14.01,2013-01-19 10:06:00,
2013-01-19 05:07:00,29.5,4.6,28.91,NNE,25,14.3,25.7,34,0.00,,---,0.00,VWS V14.01,2013-01-19 10:07:00,
2013-01-19 05:08:00,29.3,4.4,28.91,North,11,5.8,17.7,34,0.00,,---,0.00,VWS V14.01,2013-01-19 10:08:00,
2013-01-19 05:09:00,35.8,13.8,29.00,SW,222,6.7,11.2,40,0.00,,---,0.00,VWS V14.01,2013-01-19 10:09:00,
2013-01-19 05:11:00,29.3,4.4,28.91,NW,312,11.6,24.4,34,0.00,,---,0.00,VWS V14.01,2013-01-19 10:11:00,
2013-01-19 05:12:00,29.3,5.1,28.91,NNW,328,10.1,19.0,35,0.00,,---,0.00,VWS V14.01,2013-01-19 10:12:00,
2013-01-19 05:14:00,36.0,14.0,29.00,SW,231,7.4,11.6,40,0.00,,---,0.00,VWS V14.01,2013-01-19 10:14:00,
2013-01-19 05:19:00,35.8,13.8,29.00,SW,236,6.3,10.1,40,0.00,,---,0.00,VWS V14.01,2013-01-19 10:19:00,
2013-01-19 05:24:00,36.0,14.0,29.00,SW,225,11.6,11.6,40,0.00,,---,0.00,VWS V14.01,2013-01-19 10:24:00,
2013-01-19 05:29:00,36.1,14.2,29.00,SSW,202,10.1,10.1,40,0.00,,---,0.00,VWS V14.01,2013-01-19 10:29:00,
2013-01-19 05:34:00,36.3,14.3,29.00,SSW,200,9.2,12.1,40,0.00,,---,0.00,VWS V14.01,2013-01-19 10:34:00,
2013-01-19 05:39:00,36.5,14.5,29.00,WSW,251,5.8,11.0,40,0.00,,---,0.00,VWS V14.01,2013-01-19 10:39:00,
2013-01-19 05:44:00,36.5,14.5,29.00,West,264,10.5,15.4,40,0.00,,---,0.00,VWS V14.01,2013-01-19 10:44:00,
2013-01-19 05:49:00,36.5,13.9,29.00,WSW,238,4.5,10.5,39,0.00,,---,0.00,VWS V14.01,2013-01-19 10:49:00,
2013-01-19 05:54:00,36.5,14.5,29.00,SW,233,9.6,9.6,40,0.00,,---,0.00,VWS V14.01,2013-01-19 10:54:00,
2013-01-19 05:59:00,36.5,14.5,29.00,WSW,249,12.1,12.1,40,0.00,,---,0.00,VWS V14.01,2013-01-19 10:59:00,
2013-01-19 06:04:00,36.7,14.1,29.00,SW,232,6.3,11.0,39,0.00,,---,0.00,VWS V14.01,2013-01-19 11:04:00,
2013-01-19 06:09:00,36.5,14.5,29.00,SSW,197,6.9,11.0,40,0.00,,---,0.00,VWS V14.01,2013-01-19 11:09:00,
2013-01-19 06:10:00,27.0,2.3,28.97,NW,320,12.5,19.0,34,0.00,,---,0.00,VWS V14.01,2013-01-19 11:10:00,
2013-01-19 06:14:00,36.5,14.5,28.97,SW,215,5.4,6.9,40,0.00,,---,0.00,VWS V14.01,2013-01-19 11:14:00,
2013-01-19 06:17:00,26.2,0.4,28.97,NNW,346,11.6,15.2,32,0.00,,---,0.00,VWS V14.01,2013-01-19 11:17:00,
2013-01-19 06:18:00,26.2,0.4,28.97,North,351,9.2,13.0,32,0.00,,---,0.00,VWS V14.01,2013-01-19 11:18:00,
2013-01-19 06:19:00,26.2,0.4,28.97,West,272,14.3,19.5,32,0.00,,---,0.00,VWS V14.01,2013-01-19 11:19:00,
2013-01-19 06:21:00,26.2,0.4,28.97,WNW,286,12.5,16.3,32,0.00,,---,0.00,VWS V14.01,2013-01-19 11:21:00,
2013-01-19 06:22:00,26.2,0.4,28.97,NNW,328,8.3,12.5,32,0.00,,---,0.00,VWS V14.01,2013-01-19 11:22:00,
2013-01-19 06:24:00,26.1,0.2,28.97,NW,321,12.1,21.9,32,0.00,,---,0.00,VWS V14.01,2013-01-19 11:24:00,
2013-01-19 06:25:00,26.1,0.2,28.97,WNW,292,12.1,16.8,32,0.00,,---,0.00,VWS V14.01,2013-01-19 11:25:00,
2013-01-19 06:26:00,26.1,0.2,28.97,WNW,293,8.3,15.9,32,0.00,,---,0.00,VWS V14.01,2013-01-19 11:26:00,
2013-01-19 06:31:00,25.9,0.1,28.97,NW,310,8.7,15.9,32,0.00,,---,0.00,VWS V14.01,2013-01-19 11:31:00,
2013-01-19 06:33:00,25.7,-0.1,28.97,WNW,301,8.7,18.1,32,0.00,,---,0.00,VWS V14.01,2013-01-19 11:33:00,
2013-01-19 06:34:00,25.7,-0.1,28.97,West,280,15.4,15.9,32,0.00,,---,0.00,VWS V14.01,2013-01-19 11:34:00,
2013-01-19 06:36:00,25.9,0.1,28.97,WNW,287,7.8,20.1,32,0.00,,---,0.00,VWS V14.01,2013-01-19 11:36:00,
2013-01-19 06:38:00,25.7,-0.1,28.97,WNW,293,11.0,13.9,32,0.00,,---,0.00,VWS V14.01,2013-01-19 11:38:00,
2013-01-19 06:39:00,25.7,-0.1,28.97,NW,321,6.9,11.0,32,0.00,,---,0.00,VWS V14.01,2013-01-19 11:39:00,
2013-01-19 06:40:00,25.7,0.6,28.97,WNW,291,9.2,15.2,33,0.00,,---,0.00,VWS V14.01,2013-01-19 11:40:00,
2013-01-19 06:41:00,25.5,0.4,28.97,NW,312,4.9,11.2,33,0.00,,---,0.00,VWS V14.01,2013-01-19 11:41:00,
2013-01-19 06:42:00,25.5,0.4,28.97,NNW,331,9.6,9.6,33,0.00,,---,0.00,VWS V14.01,2013-01-19 11:42:00,
2013-01-19 06:43:00,25.5,0.4,28.97,NW,326,11.0,12.5,33,0.00,,---,0.00,VWS V14.01,2013-01-19 11:43:00,
2013-01-19 06:47:00,25.2,-0.5,28.97,NW,313,13.4,14.8,32,0.00,,---,0.00,VWS V14.01,2013-01-19 11:47:00,
2013-01-19 06:48:00,25.0,-0.7,28.97,WNW,297,10.5,18.6,32,0.00,,---,0.00,VWS V14.01,2013-01-19 11:48:00,
2013-01-19 06:50:00,24.8,-0.9,28.97,West,275,9.2,14.3,32,0.00,,---,0.00,VWS V14.01,2013-01-19 11:50:00,
2013-01-19 06:51:00,24.8,-0.9,29.00,WNW,290,11.0,20.6,32,0.00,,---,0.00,VWS V14.01,2013-01-19 11:51:00,
2013-01-19 06:55:00,24.6,-1.0,29.00,NNW,329,13.0,16.3,32,0.00,,---,0.00,VWS V14.01,2013-01-19 11:55:00,
2013-01-19 06:56:00,24.4,-1.2,29.00,SW,235,12.1,16.8,32,0.00,,---,0.00,VWS V14.01,2013-01-19 11:56:00,
2013-01-19 06:59:00,24.4,-1.2,29.00,NW,316,11.6,16.8,32,0.00,,---,0.00,VWS V14.01,2013-01-19 11:59:00,
2013-01-19 07:00:00,24.4,-1.2,29.00,NNW,327,11.2,15.9,32,0.00,,---,0.00,VWS V14.01,2013-01-19 12:00:00,
2013-01-19 07:02:00,24.3,-1.3,29.00,WNW,298,9.6,15.4,32,0.00,,---,0.00,VWS V14.01,2013-01-19 12:02:00,
2013-01-19 07:03:00,24.3,-1.3,29.00,NW,305,9.6,15.4,32,0.00,,---,0.00,VWS V14.01,2013-01-19 12:03:00,
2013-01-19 07:07:00,24.1,-1.5,29.00,West,278,11.2,18.1,32,0.00,,---,0.00,VWS V14.01,2013-01-19 12:07:00,
2013-01-19 07:09:00,24.1,-1.5,29.00,NW,324,13.9,17.7,32,0.00,,---,0.00,VWS V14.01,2013-01-19 12:09:00,
2013-01-19 07:10:00,24.1,-1.5,29.00,North,351,11.6,15.9,32,0.00,,---,0.00,VWS V14.01,2013-01-19 12:10:00,
2013-01-19 07:11:00,24.1,-1.5,29.00,NW,308,11.6,15.4,32,0.00,,---,0.00,VWS V14.01,2013-01-19 12:11:00,
2013-01-19 07:12:00,23.9,-1.7,29.00,WNW,299,11.6,14.3,32,0.00,,---,0.00,VWS V14.01,2013-01-19 12:12:00,
2013-01-19 07:13:00,23.9,-1.7,29.00,WNW,293,10.5,14.3,32,0.00,,---,0.00,VWS V14.01,2013-01-19 12:13:00,
2013-01-19 07:15:00,23.9,-1.7,29.00,North,351,10.1,13.4,32,0.00,,---,0.00,VWS V14.01,2013-01-19 12:15:00,
2013-01-19 07:18:00,23.9,-1.7,29.00,NNW,335,11.2,13.0,32,0.00,,---,0.00,VWS V14.01,2013-01-19 12:18:00,
2013-01-19 07:21:00,23.7,-1.8,29.00,NNW,340,10.5,15.2,32,0.00,,---,0.00,VWS V14.01,2013-01-19 12:21:00,
2013-01-19 07:22:00,23.7,-1.8,29.00,North,351,7.4,16.3,32,0.00,,---,0.00,VWS V14.01,2013-01-19 12:22:00,
2013-01-19 07:25:00,23.5,-2.0,29.00,NNW,341,13.0,13.9,32,0.00,,---,0.00,VWS V14.01,2013-01-19 12:25:00,
2013-01-19 07:30:00,23.2,-2.3,29.00,NW,311,14.3,14.8,32,0.00,,---,0.00,VWS V14.01,2013-01-19 12:30:00,
2013-01-19 07:32:00,23.2,-3.6,29.00,NW,308,10.1,15.2,30,0.00,,---,0.00,VWS V14.01,2013-01-19 12:32:00,
2013-01-19 07:35:00,23.0,-3.8,29.00,WNW,294,6.7,13.9,30,0.00,,---,0.00,VWS V14.01,2013-01-19 12:35:00,
2013-01-19 07:46:00,22.8,-4.0,29.03,NNW,336,11.6,18.6,30,0.00,,---,0.00,VWS V14.01,2013-01-19 12:46:00,
2013-01-19 09:21:00,38.8,16.0,28.97,SW,225,11.0,11.0,39,0.00,,---,0.00,VWS V14.01,2013-01-19 14:21:00,
2013-01-19 09:27:00,39.2,16.3,28.97,SW,215,6.7,11.6,39,0.00,,---,0.00,VWS V14.01,2013-01-19 14:27:00,
2013-01-19 09:47:00,40.5,15.6,28.97,West,281,7.8,11.6,36,0.00,,---,0.00,VWS V14.01,2013-01-19 14:47:00,
2013-01-19 10:00:00,41.2,15.0,28.97,SW,230,9.2,10.1,34,0.00,,---,0.00,VWS V14.01,2013-01-19 15:00:00,
2013-01-19 10:05:00,41.5,15.3,28.97,SW,215,5.4,7.8,34,0.00,,---,0.00,VWS V14.01,2013-01-19 15:05:00,
2013-01-19 10:10:00,41.5,15.3,28.97,SW,217,4.0,8.7,34,0.00,,---,0.00,VWS V14.01,2013-01-19 15:10:00,
2013-01-19 10:15:00,42.3,15.2,28.97,SW,228,11.0,11.0,33,0.00,,---,0.00,VWS V14.01,2013-01-19 15:15:00,
2013-01-19 10:20:00,42.6,15.6,28.97,SW,230,4.0,6.7,33,0.00,,---,0.00,VWS V14.01,2013-01-19 15:20:00,
2013-01-19 10:26:00,43.2,15.3,28.97,SW,232,10.1,12.1,32,0.00,,---,0.00,VWS V14.01,2013-01-19 15:26:00,
2013-01-19 10:31:00,43.2,14.6,28.97,WSW,244,12.1,12.5,31,0.00,,---,0.00,VWS V14.01,2013-01-19 15:31:00,
2013-01-19 10:36:00,43.5,14.9,28.97,SSW,202,9.6,9.6,31,0.00,,---,0.00,VWS V14.01,2013-01-19 15:36:00,
2013-01-19 10:42:00,43.9,14.5,28.97,SW,222,6.9,13.0,30,0.00,,---,0.00,VWS V14.01,2013-01-19 15:42:00,
2013-01-19 10:47:00,44.2,14.8,28.97,SSW,206,6.9,10.5,30,0.00,,---,0.00,VWS V14.01,2013-01-19 15:47:00,
2013-01-19 10:53:00,44.2,14.0,28.97,WSW,244,4.9,9.2,29,0.00,,---,0.00,VWS V14.01,2013-01-19 15:53:00,
2013-01-19 10:59:00,44.8,14.5,28.97,SSW,194,11.6,13.9,29,0.00,,---,0.00,VWS V14.01,2013-01-19 15:59:00,
2013-01-19 11:05:00,45.3,14.9,28.97,WSW,252,8.7,12.1,29,0.00,,---,0.00,VWS V14.01,2013-01-19 16:05:00,
2013-01-19 11:10:00,45.7,14.5,28.97,SW,225,7.8,8.7,28,0.00,,---,0.00,VWS V14.01,2013-01-19 16:10:00,
2013-01-19 11:15:00,46.0,14.8,28.97,WSW,245,7.4,12.5,28,0.00,,---,0.00,VWS V14.01,2013-01-19 16:15:00,
2013-01-19 11:20:00,46.2,14.9,28.97,WSW,237,9.6,11.0,28,0.00,,---,0.00,VWS V14.01,2013-01-19 16:20:00,
2013-01-19 11:25:00,46.2,14.9,28.97,SW,227,7.8,9.6,28,0.00,,---,0.00,VWS V14.01,2013-01-19 16:25:00,
2013-01-19 11:30:00,46.4,15.1,28.94,SW,219,7.4,11.6,28,0.00,,---,0.00,VWS V14.01,2013-01-19 16:30:00,
2013-01-19 11:35:00,46.8,14.6,28.94,WSW,238,8.7,13.9,27,0.00,,---,0.00,VWS V14.01,2013-01-19 16:35:00,
2013-01-19 11:40:00,47.1,14.9,28.94,WNW,297,7.4,10.5,27,0.00,,---,0.00,VWS V14.01,2013-01-19 16:40:00,
2013-01-19 11:45:00,47.3,15.0,28.94,WSW,252,9.2,14.8,27,0.00,,---,0.00,VWS V14.01,2013-01-19 16:45:00,
2013-01-19 11:50:00,47.7,15.3,28.94,WSW,243,6.3,13.4,27,0.00,,---,0.00,VWS V14.01,2013-01-19 16:50:00,
2013-01-19 11:55:00,47.3,15.0,28.94,SW,216,4.5,11.2,27,0.00,,---,0.00,VWS V14.01,2013-01-19 16:55:00,
2013-01-19 12:00:00,48.0,15.6,28.94,SW,217,6.3,11.2,27,0.00,,---,0.00,VWS V14.01,2013-01-19 17:00:00,
2013-01-19 12:05:00,47.7,15.3,28.94,SW,231,8.7,13.0,27,0.00,,---,0.00,VWS V14.01,2013-01-19 17:05:00,
2013-01-19 12:12:00,48.4,16.0,28.91,SW,227,7.4,12.5,27,0.00,,---,0.00,VWS V14.01,2013-01-19 17:12:00,
2013-01-19 12:19:00,48.4,16.0,28.91,WSW,243,11.2,11.6,27,0.00,,---,0.00,VWS V14.01,2013-01-19 17:19:00,
2013-01-19 12:27:00,48.6,16.1,28.91,South,176,6.3,10.1,27,0.00,,---,0.00,VWS V14.01,2013-01-19 17:27:00,
2013-01-19 12:32:00,48.9,15.6,28.91,WSW,243,6.3,15.2,26,0.00,,---,0.00,VWS V14.01,2013-01-19 17:32:00,
2013-01-19 12:38:00,49.3,15.9,28.91,West,262,3.6,8.3,26,0.00,,---,0.00,VWS V14.01,2013-01-19 17:38:00,
2013-01-19 12:44:00,50.2,16.6,28.88,WSW,243,6.7,7.4,26,0.00,,---,0.00,VWS V14.01,2013-01-19 17:44:00,
2013-01-19 12:49:00,50.5,17.0,28.88,SW,233,7.4,9.6,26,0.00,,---,0.00,VWS V14.01,2013-01-19 17:49:00,
2013-01-19 12:55:00,50.5,15.1,28.88,SSW,207,14.3,14.3,24,0.00,,---,0.00,VWS V14.01,2013-01-19 17:55:00,
2013-01-19 13:00:00,50.2,14.8,28.88,SSW,206,6.3,12.1,24,0.00,,---,0.00,VWS V14.01,2013-01-19 18:00:00,
2013-01-19 13:07:00,51.1,14.6,28.88,SSE,156,5.4,15.4,23,0.00,,---,0.00,VWS V14.01,2013-01-19 18:07:00,
2013-01-19 13:13:00,50.7,17.1,28.88,SSW,206,5.8,14.3,26,0.00,,---,0.00,VWS V14.01,2013-01-19 18:13:00,
2013-01-19 13:18:00,51.4,14.9,28.88,West,262,5.4,9.6,23,0.00,,---,0.00,VWS V14.01,2013-01-19 18:18:00,
2013-01-19 13:23:00,51.8,18.0,28.88,WSW,245,5.8,8.7,26,0.00,,---,0.00,VWS V14.01,2013-01-19 18:23:00,
2013-01-19 13:30:00,52.2,18.3,28.85,SW,214,6.3,9.6,26,0.00,,---,0.00,VWS V14.01,2013-01-19 18:30:00,
2013-01-19 13:35:00,51.6,15.1,28.85,WSW,240,11.0,13.0,23,0.00,,---,0.00,VWS V14.01,2013-01-19 18:35:00,
2013-01-19 13:40:00,52.0,15.4,28.85,SW,222,8.3,11.6,23,0.00,,---,0.00,VWS V14.01,2013-01-19 18:40:00,
2013-01-19 13:46:00,51.4,14.9,28.85,SW,223,12.5,17.7,23,0.00,,---,0.00,VWS V14.01,2013-01-19 18:46:00,
2013-01-19 13:52:00,52.0,18.2,28.85,SW,228,4.0,11.6,26,0.00,,---,0.00,VWS V14.01,2013-01-19 18:52:00,
2013-01-19 13:57:00,51.8,15.2,28.85,West,270,4.9,13.9,23,0.00,,---,0.00,VWS V14.01,2013-01-19 18:57:00,
2013-01-19 14:03:00,51.8,15.2,28.85,SW,221,6.3,13.9,23,0.00,,---,0.00,VWS V14.01,2013-01-19 19:03:00,
2013-01-19 14:09:00,52.2,15.5,28.85,SW,236,7.8,12.1,23,0.00,,---,0.00,VWS V14.01,2013-01-19 19:09:00,
2013-01-19 14:14:00,51.8,15.2,28.82,West,262,11.0,19.0,23,0.00,,---,0.00,VWS V14.01,2013-01-19 19:14:00,
2013-01-19 14:19:00,52.2,15.5,28.82,SW,232,12.5,17.7,23,0.00,,---,0.00,VWS V14.01,2013-01-19 19:19:00,
2013-01-19 14:25:00,52.2,15.5,28.82,West,263,7.4,15.2,23,0.00,,---,0.00,VWS V14.01,2013-01-19 19:25:00,
2013-01-19 14:30:00,52.5,15.8,28.82,WSW,256,15.4,15.9,23,0.00,,---,0.00,VWS V14.01,2013-01-19 19:30:00,
2013-01-19 14:37:00,52.5,15.8,28.82,WSW,242,16.8,17.2,23,0.00,,---,0.00,VWS V14.01,2013-01-19 19:37:00,
2013-01-19 14:44:00,53.2,16.4,28.82,West,280,8.7,14.8,23,0.00,,---,0.00,VWS V14.01,2013-01-19 19:44:00,
2013-01-19 14:51:00,53.2,16.4,28.82,SW,219,8.7,11.2,23,0.00,,---,0.00,VWS V14.01,2013-01-19 19:51:00,
2013-01-19 14:57:00,53.4,16.6,28.79,SW,223,7.4,15.4,23,0.00,,---,0.00,VWS V14.01,2013-01-19 19:57:00,
2013-01-19 15:03:00,53.1,16.3,28.79,WSW,249,6.7,11.0,23,0.00,,---,0.00,VWS V14.01,2013-01-19 20:03:00,
2013-01-19 15:08:00,53.1,16.3,28.79,SW,235,11.0,14.3,23,0.00,,---,0.00,VWS V14.01,2013-01-19 20:08:00,
2013-01-19 15:13:00,52.9,16.1,28.79,West,264,11.0,17.2,23,0.00,,---,0.00,VWS V14.01,2013-01-19 20:13:00,
2013-01-19 15:18:00,52.5,15.8,28.79,WSW,256,13.0,13.0,23,0.00,,---,0.00,VWS V14.01,2013-01-19 20:18:00,
2013-01-19 15:23:00,52.5,18.6,28.79,WSW,242,11.2,14.8,26,0.00,,---,0.00,VWS V14.01,2013-01-19 20:23:00,
2013-01-19 15:29:00,52.5,18.6,28.79,West,269,10.1,15.4,26,0.00,,---,0.00,VWS V14.01,2013-01-19 20:29:00,
2013-01-19 15:34:00,52.5,18.6,28.79,WSW,244,6.7,18.6,26,0.00,,---,0.00,VWS V14.01,2013-01-19 20:34:00,
2013-01-19 15:40:00,52.7,17.9,28.79,West,273,9.2,12.5,25,0.00,,---,0.00,VWS V14.01,2013-01-19 20:40:00,
2013-01-19 15:45:00,52.9,19.0,28.79,SW,215,8.7,11.6,26,0.00,,---,0.00,VWS V14.01,2013-01-19 20:45:00,
2013-01-19 15:52:00,52.5,18.6,28.79,WSW,240,6.3,11.0,26,0.00,,---,0.00,VWS V14.01,2013-01-19 20:52:00,
2013-01-19 15:57:00,52.2,19.2,28.79,SW,217,6.9,10.1,27,0.00,,---,0.00,VWS V14.01,2013-01-19 20:57:00,
2013-01-19 16:03:00,52.3,18.5,28.79,SW,235,9.2,14.8,26,0.00,,---,0.00,VWS V14.01,2013-01-19 21:03:00,
2013-01-19 16:08:00,52.3,18.5,28.79,SW,225,5.8,11.2,26,0.00,,---,0.00,VWS V14.01,2013-01-19 21:08:00,
2013-01-19 16:13:00,52.3,18.5,28.76,South,184,6.9,12.1,26,0.00,,---,0.00,VWS V14.01,2013-01-19 21:13:00,
2013-01-19 16:20:00,52.2,18.3,28.76,SW,230,6.9,10.5,26,0.00,,---,0.00,VWS V14.01,2013-01-19 21:20:00,
2013-01-19 16:27:00,51.4,18.6,28.79,WSW,256,12.5,13.9,27,0.00,,---,0.00,VWS V14.01,2013-01-19 21:27:00,
2013-01-19 16:32:00,51.3,18.4,28.79,West,271,9.6,10.5,27,0.00,,---,0.00,VWS V14.01,2013-01-19 21:32:00,
2013-01-19 16:37:00,50.9,19.0,28.79,WSW,251,7.4,11.2,28,0.00,,---,0.00,VWS V14.01,2013-01-19 21:37:00,
2013-01-19 16:46:00,50.4,19.3,28.79,WSW,257,7.4,8.7,29,0.00,,---,0.00,VWS V14.01,2013-01-19 21:46:00,
2013-01-19 16:53:00,49.6,19.5,28.79,WSW,256,7.8,13.0,30,0.00,,---,0.00,VWS V14.01,2013-01-19 21:53:00,
2013-01-19 16:58:00,49.1,20.5,28.79,West,277,9.6,11.6,32,0.00,,---,0.00,VWS V14.01,2013-01-19 21:58:00,
2013-01-19 17:03:00,48.6,20.8,28.79,West,271,4.9,9.2,33,0.00,,---,0.00,VWS V14.01,2013-01-19 22:03:00,
2013-01-19 17:10:00,48.4,22.0,28.79,WSW,254,11.6,11.6,35,0.00,,---,0.00,VWS V14.01,2013-01-19 22:10:00,
2013-01-19 17:18:00,48.0,23.0,28.79,WSW,238,7.4,11.0,37,0.00,,---,0.00,VWS V14.01,2013-01-19 22:18:00,
2013-01-19 17:24:00,47.8,22.9,28.79,WSW,241,7.8,9.2,37,0.00,,---,0.00,VWS V14.01,2013-01-19 22:24:00,
2013-01-19 17:30:00,47.5,22.5,28.79,West,264,9.6,10.5,37,0.00,,---,0.00,VWS V14.01,2013-01-19 22:30:00,
2013-01-19 17:35:00,47.5,22.5,28.79,WSW,257,6.3,6.7,37,0.00,,---,0.00,VWS V14.01,2013-01-19 22:35:00,
2013-01-19 17:41:00,47.3,23.0,28.79,West,278,4.9,7.8,38,0.00,,---,0.00,VWS V14.01,2013-01-19 22:41:00,
2013-01-19 17:51:00,46.9,23.3,28.79,SW,224,5.8,10.1,39,0.00,,---,0.00,VWS V14.01,2013-01-19 22:51:00,
2013-01-19 17:59:00,46.6,23.0,28.79,West,267,4.5,11.6,39,0.00,,---,0.00,VWS V14.01,2013-01-19 22:59:00,
2013-01-19 18:06:00,46.4,22.8,28.79,WSW,245,6.9,11.0,39,0.00,,---,0.00,VWS V14.01,2013-01-19 23:06:00,
2013-01-19 18:13:00,46.4,22.8,28.79,West,262,6.7,11.6,39,0.00,,---,0.00,VWS V14.01,2013-01-19 23:13:00,
2013-01-19 18:18:00,46.6,23.0,28.79,WSW,242,5.4,10.5,39,0.00,,---,0.00,VWS V14.01,2013-01-19 23:18:00,
2013-01-19 18:24:00,46.4,22.8,28.79,WSW,245,7.4,9.6,39,0.00,,---,0.00,VWS V14.01,2013-01-19 23:24:00,
2013-01-19 18:29:00,46.2,22.6,28.79,WSW,255,5.8,11.2,39,0.00,,---,0.00,VWS V14.01,2013-01-19 23:29:00,
2013-01-19 18:34:00,46.0,23.1,28.79,WSW,245,14.8,14.8,40,0.00,,---,0.00,VWS V14.01,2013-01-19 23:34:00,
2013-01-19 18:39:00,46.0,23.1,28.79,SW,236,4.9,7.4,40,0.00,,---,0.00,VWS V14.01,2013-01-19 23:39:00,
2013-01-19 18:44:00,46.2,23.2,28.79,SW,220,9.2,10.5,40,0.00,,---,0.00,VWS V14.01,2013-01-19 23:44:00,
2013-01-19 18:49:00,46.2,23.2,28.79,WSW,254,5.8,8.7,40,0.00,,---,0.00,VWS V14.01,2013-01-19 23:49:00,
2013-01-19 18:54:00,46.2,23.2,28.79,WSW,251,5.4,14.3,40,0.00,,---,0.00,VWS V14.01,2013-01-19 23:54:00,
2013-01-19 18:59:00,46.2,23.2,28.76,WSW,244,6.3,8.7,40,0.00,,---,0.00,VWS V14.01,2013-01-19 23:59:00,
2013-01-19 19:07:00,46.4,23.4,28.76,SSW,208,9.6,14.3,40,0.00,,---,0.00,VWS V14.01,2013-01-20 00:07:00,
2013-01-19 19:14:00,46.6,23.6,28.79,WSW,243,6.9,10.5,40,0.00,,---,0.00,VWS V14.01,2013-01-20 00:14:00,
2013-01-19 19:19:00,46.4,23.4,28.79,West,270,9.6,11.0,40,0.00,,---,0.00,VWS V14.01,2013-01-20 00:19:00,
2013-01-19 19:24:00,46.4,23.4,28.79,WNW,296,9.6,13.4,40,0.00,,---,0.00,VWS V14.01,2013-01-20 00:24:00,
2013-01-19 19:29:00,46.4,23.4,28.79,WSW,250,8.7,13.4,40,0.00,,---,0.00,VWS V14.01,2013-01-20 00:29:00,
2013-01-19 19:34:00,46.2,23.8,28.79,WSW,238,8.7,14.3,41,0.00,,---,0.00,VWS V14.01,2013-01-20 00:34:00,
2013-01-19 19:40:00,46.2,23.8,28.79,WSW,240,7.8,13.0,41,0.00,,---,0.00,VWS V14.01,2013-01-20 00:40:00,
2013-01-19 19:47:00,46.4,24.0,28.79,West,275,5.8,11.0,41,0.00,,---,0.00,VWS V14.01,2013-01-20 00:47:00,
2013-01-19 19:52:00,46.4,24.0,28.79,WSW,253,12.1,13.4,41,0.00,,---,0.00,VWS V14.01,2013-01-20 00:52:00,
2013-01-19 19:57:00,46.2,23.8,28.79,WSW,245,8.7,12.5,41,0.00,,---,0.00,VWS V14.01,2013-01-20 00:57:00,
2013-01-19 20:02:00,46.4,24.0,28.79,West,262,9.2,9.2,41,0.00,,---,0.00,VWS V14.01,2013-01-20 01:02:00,
2013-01-19 20:07:00,46.4,24.0,28.79,WSW,248,7.4,14.3,41,0.00,,---,0.00,VWS V14.01,2013-01-20 01:07:00,
2013-01-19 20:13:00,46.4,24.0,28.79,SW,232,8.7,9.2,41,0.00,,---,0.00,VWS V14.01,2013-01-20 01:13:00,
2013-01-19 20:21:00,46.2,24.4,28.79,WSW,256,10.5,14.3,42,0.00,,---,0.00,VWS V14.01,2013-01-20 01:21:00,
2013-01-19 20:27:00,46.0,24.2,28.79,WSW,251,6.9,11.2,42,0.00,,---,0.00,VWS V14.01,2013-01-20 01:27:00,
2013-01-19 20:33:00,45.9,24.6,28.79,SW,232,12.5,16.3,43,0.00,,---,0.00,VWS V14.01,2013-01-20 01:33:00,
2013-01-19 20:38:00,45.9,25.2,28.79,WSW,237,11.0,12.5,44,0.00,,---,0.00,VWS V14.01,2013-01-20 01:38:00,
2013-01-19 20:43:00,45.9,25.2,28.79,SW,230,8.3,13.9,44,0.00,,---,0.00,VWS V14.01,2013-01-20 01:43:00,
2013-01-19 20:49:00,45.5,25.4,28.79,WSW,249,8.3,11.2,45,0.00,,---,0.00,VWS V14.01,2013-01-20 01:49:00,
2013-01-19 20:55:00,45.7,26.1,28.79,SW,216,6.9,9.6,46,0.00,,---,0.00,VWS V14.01,2013-01-20 01:55:00,
2013-01-19 21:02:00,45.7,26.1,28.76,West,276,7.8,19.5,46,0.00,,---,0.00,VWS V14.01,2013-01-20 02:02:00,
2013-01-19 21:08:00,45.9,26.3,28.76,West,276,15.2,15.4,46,0.00,,---,0.00,VWS V14.01,2013-01-20 02:08:00,
2013-01-19 21:14:00,45.9,26.3,28.76,WSW,256,9.2,16.8,46,0.00,,---,0.00,VWS V14.01,2013-01-20 02:14:00,
2013-01-19 21:20:00,45.9,26.8,28.76,WSW,240,11.6,13.0,47,0.00,,---,0.00,VWS V14.01,2013-01-20 02:20:00,
2013-01-19 21:25:00,46.0,27.0,28.76,WSW,253,10.1,15.9,47,0.00,,---,0.00,VWS V14.01,2013-01-20 02:25:00,
2013-01-19 21:30:00,46.0,27.0,28.76,SW,234,6.9,21.0,47,0.00,,---,0.00,VWS V14.01,2013-01-20 02:30:00,
2013-01-19 21:35:00,45.9,26.8,28.76,West,266,10.1,16.3,47,0.00,,---,0.00,VWS V14.01,2013-01-20 02:35:00,
2013-01-19 21:42:00,45.9,26.8,28.76,WSW,249,13.4,13.4,47,0.00,,---,0.00,VWS V14.01,2013-01-20 02:42:00,
2013-01-19 21:47:00,45.9,26.8,28.76,WSW,254,13.0,15.2,47,0.00,,---,0.00,VWS V14.01,2013-01-20 02:47:00,
2013-01-19 21:53:00,45.7,27.1,28.76,SSW,197,11.2,16.8,48,0.00,,---,0.00,VWS V14.01,2013-01-20 02:53:00,
2013-01-19 21:58:00,45.7,27.1,28.76,West,279,14.3,14.3,48,0.00,,---,0.00,VWS V14.01,2013-01-20 02:58:00,
2013-01-19 22:04:00,45.5,27.5,28.76,West,268,16.8,16.8,49,0.00,,---,0.00,VWS V14.01,2013-01-20 03:04:00,
2013-01-19 22:09:00,45.5,27.5,28.76,SSW,206,9.6,15.9,49,0.00,,---,0.00,VWS V14.01,2013-01-20 03:09:00,
2013-01-19 22:15:00,45.5,27.5,28.76,WNW,282,10.1,17.2,49,0.00,,---,0.00,VWS V14.01,2013-01-20 03:15:00,
2013-01-19 22:20:00,45.5,27.5,28.76,WSW,256,18.6,18.6,49,0.00,,---,0.00,VWS V14.01,2013-01-20 03:20:00,
2013-01-19 22:25:00,45.9,27.8,28.76,WSW,249,12.1,13.9,49,0.00,,---,0.00,VWS V14.01,2013-01-20 03:25:00,
2013-01-19 22:33:00,46.0,27.5,28.79,WSW,248,10.1,19.0,48,0.00,,---,0.00,VWS V14.01,2013-01-20 03:33:00,
2013-01-19 22:39:00,45.9,27.8,28.79,WSW,247,9.6,13.4,49,0.00,,---,0.00,VWS V14.01,2013-01-20 03:39:00,
2013-01-19 22:44:00,45.5,27.5,28.76,West,261,13.9,17.2,49,0.00,,---,0.00,VWS V14.01,2013-01-20 03:44:00,
2013-01-19 22:49:00,45.9,27.8,28.76,West,275,11.2,18.6,49,0.00,,---,0.00,VWS V14.01,2013-01-20 03:49:00,
2013-01-19 22:54:00,45.5,27.5,28.76,WSW,254,13.4,17.2,49,0.00,,---,0.00,VWS V14.01,2013-01-20 03:54:00,
2013-01-19 22:59:00,45.1,28.1,28.76,WSW,249,14.8,18.6,51,0.00,,---,0.00,VWS V14.01,2013-01-20 03:59:00,
2013-01-19 23:04:00,44.8,28.2,28.76,West,268,9.2,14.3,52,0.00,,---,0.00,VWS V14.01,2013-01-20 04:04:00,
2013-01-19 23:09:00,44.4,28.4,28.76,WSW,251,8.7,12.5,53,0.00,,---,0.00,VWS V14.01,2013-01-20 04:09:00,
2013-01-19 23:14:00,44.2,28.7,28.76,WSW,253,6.9,15.9,54,0.00,,---,0.00,VWS V14.01,2013-01-20 04:14:00,
2013-01-19 23:19:00,44.1,28.9,28.76,West,281,12.1,16.8,55,0.00,,---,0.00,VWS V14.01,2013-01-20 04:19:00,
2013-01-19 23:24:00,43.7,29.0,28.76,WSW,242,7.8,11.6,56,0.00,,---,0.00,VWS V14.01,2013-01-20 04:24:00,
2013-01-19 23:29:00,43.3,29.1,28.79,WNW,284,10.5,15.2,57,0.00,,---,0.00,VWS V14.01,2013-01-20 04:29:00,
2013-01-19 23:34:00,43.3,29.6,28.79,WSW,241,9.2,16.3,58,0.00,,---,0.00,VWS V14.01,2013-01-20 04:34:00,
2013-01-19 23:39:00,43.0,29.2,28.79,West,263,8.3,16.3,58,0.00,,---,0.00,VWS V14.01,2013-01-20 04:39:00,
2013-01-19 23:44:00,43.0,29.2,28.79,WNW,287,17.2,17.2,58,0.00,,---,0.00,VWS V14.01,2013-01-20 04:44:00,
2013-01-19 23:49:00,42.8,29.5,28.79,West,268,11.0,15.2,59,0.00,,---,0.00,VWS V14.01,2013-01-20 04:49:00,
2013-01-19 23:54:00,42.6,29.7,28.79,West,261,8.7,14.8,60,0.00,,---,0.00,VWS V14.01,2013-01-20 04:54:00,